Time;durP1;ratioP1;P1;durP2;ratioP2;P2;SDS_P1;SDS_P2;PMS_P1;PMS_P2;Temp;Humidity;BMP_temperature;BMP_pressure;BME280_temperature;BME280_humidity;BME280_pressure;Samples;Min_cycle;Max_cycle;Signal;HPM_P1;HPM_P2
2023/08/09 00:01:19;;;;;;;5.80;2.65;;;17.00;81.40;;;;;;5048162;28;20467;-67
2023/08/09 00:03:45;;;;;;;5.40;2.45;;;17.00;81.50;;;;;;5047692;28;20017;-67
2023/08/09 00:06:10;;;;;;;5.55;2.65;;;17.00;81.50;;;;;;5053537;28;20416;-67
2023/08/09 00:08:36;;;;;;;5.90;2.83;;;17.00;82.20;;;;;;5047929;28;20038;-67
2023/08/09 00:11:02;;;;;;;6.97;3.55;;;16.90;81.50;;;;;;5051489;28;20397;-67
2023/08/09 00:13:28;;;;;;;6.50;3.20;;;16.90;81.50;;;;;;5046370;28;20020;-67
2023/08/09 00:15:54;;;;;;;6.20;3.20;;;16.90;81.60;;;;;;5052976;28;20393;-67
2023/08/09 00:18:20;;;;;;;7.78;3.33;;;16.90;81.60;;;;;;5051002;28;20108;-66
2023/08/09 00:20:46;;;;;;;6.47;3.25;;;16.90;81.60;;;;;;5028638;28;20114;-67
2023/08/09 00:23:13;;;;;;;7.07;3.35;;;16.90;81.60;;;;;;5045057;28;20076;-67
2023/08/09 00:25:41;;;;;;;6.82;3.30;;;16.90;81.60;;;;;;5050721;28;20036;-67
2023/08/09 00:28:07;;;;;;;6.03;3.42;;;16.90;81.70;;;;;;5050094;28;20445;-67
2023/08/09 00:30:33;;;;;;;6.75;2.90;;;16.90;81.70;;;;;;5046636;28;20075;-67
2023/08/09 00:32:58;;;;;;;5.88;3.00;;;16.90;81.70;;;;;;5049405;28;20026;-66
2023/08/09 00:35:24;;;;;;;5.57;2.95;;;16.90;81.70;;;;;;5050557;28;20029;-67
2023/08/09 00:37:50;;;;;;;5.35;2.80;;;16.90;81.70;;;;;;5064933;28;20527;-67
2023/08/09 00:40:16;;;;;;;6.35;3.38;;;16.90;81.70;;;;;;5041804;28;20116;-67
2023/08/09 00:42:42;;;;;;;5.90;3.00;;;16.90;81.70;;;;;;5051196;28;20247;-67
2023/08/09 00:45:09;;;;;;;6.57;3.42;;;16.80;81.70;;;;;;5050600;28;20155;-66
2023/08/09 00:47:38;;;;;;;6.22;3.38;;;16.80;81.70;;;;;;5048029;28;20090;-66
2023/08/09 00:50:04;;;;;;;6.40;3.60;;;16.80;81.70;;;;;;5050097;28;20428;-67
2023/08/09 00:52:30;;;;;;;6.72;3.25;;;16.80;81.60;;;;;;5044505;28;20029;-67
2023/08/09 00:54:57;;;;;;;7.10;4.00;;;16.80;82.30;;;;;;5044280;28;20024;-66
2023/08/09 00:57:23;;;;;;;6.63;3.42;;;16.80;81.60;;;;;;5048033;28;20480;-66
2023/08/09 00:59:49;;;;;;;6.25;2.97;;;16.80;81.60;;;;;;5041009;28;20051;-66
2023/08/09 01:02:14;;;;;;;6.60;3.58;;;16.80;81.60;;;;;;5051082;28;20032;-66
2023/08/09 01:04:40;;;;;;;6.85;3.70;;;16.80;81.60;;;;;;5052291;28;20075;-66
2023/08/09 01:07:06;;;;;;;7.32;3.78;;;16.70;81.60;;;;;;5047774;28;20033;-66
2023/08/09 01:09:50;;;;;;;6.75;3.45;;;16.70;81.60;;;;;;5042192;28;20117;-66
2023/08/09 01:12:29;;;;;;;8.82;3.58;;;16.70;81.60;;;;;;5044864;28;20017;-67
2023/08/09 01:14:59;;;;;;;7.03;3.97;;;16.60;81.60;;;;;;5046552;28;20052;-66
2023/08/09 01:17:30;;;;;;;7.40;4.40;;;16.60;81.70;;;;;;5045745;28;20364;-67
2023/08/09 01:19:57;;;;;;;8.13;4.40;;;16.60;81.70;;;;;;5048994;28;20112;-66
2023/08/09 01:22:31;;;;;;;7.50;4.57;;;16.60;81.80;;;;;;5045140;28;20049;-67
2023/08/09 01:25:03;;;;;;;8.52;5.55;;;16.60;81.80;;;;;;5027003;28;20124;-67
2023/08/09 01:27:30;;;;;;;7.47;4.68;;;16.60;81.80;;;;;;5038155;28;20040;-66
2023/08/09 01:29:56;;;;;;;8.40;4.90;;;16.60;81.90;;;;;;5045178;28;20021;-67
2023/08/09 01:32:26;;;;;;;8.55;4.75;;;16.60;81.90;;;;;;5048747;28;20514;-66
2023/08/09 01:34:52;;;;;;;8.25;5.15;;;16.60;82.00;;;;;;5046879;28;20040;-67
2023/08/09 01:37:28;;;;;;;9.48;5.63;;;16.60;82.10;;;;;;5050599;28;20029;-67
2023/08/09 01:39:57;;;;;;;10.23;6.00;;;16.60;82.10;;;;;;5040710;28;20032;-66
2023/08/09 01:42:25;;;;;;;10.23;5.85;;;16.70;82.20;;;;;;5065309;28;20112;-66
2023/08/09 01:44:52;;;;;;;9.35;6.22;;;16.60;82.10;;;;;;5048481;28;20453;-67
2023/08/09 01:47:19;;;;;;;10.90;5.57;;;16.60;82.30;;;;;;5047012;28;20029;-68
2023/08/09 01:49:48;;;;;;;10.57;6.90;;;16.60;82.40;;;;;;5043510;28;20082;-66
2023/08/09 01:52:15;;;;;;;9.93;6.43;;;16.60;82.40;;;;;;5061588;28;20036;-66
2023/08/09 01:54:41;;;;;;;11.15;6.88;;;16.60;82.40;;;;;;5040846;28;20033;-67
2023/08/09 01:57:07;;;;;;;10.75;7.15;;;16.60;82.40;;;;;;5048987;28;20339;-66
2023/08/09 01:59:33;;;;;;;10.50;6.55;;;16.60;82.50;;;;;;5029555;28;20055;-66
2023/08/09 02:01:59;;;;;;;11.85;7.40;;;16.60;82.60;;;;;;5050572;28;20020;-66
2023/08/09 02:04:25;;;;;;;10.07;6.65;;;16.60;82.40;;;;;;5042379;28;20498;-67
2023/08/09 02:06:50;;;;;;;10.70;6.93;;;16.60;82.40;;;;;;5048432;28;20361;-66
2023/08/09 02:09:16;;;;;;;11.18;6.47;;;16.60;82.40;;;;;;5041086;28;20024;-67
2023/08/09 02:11:42;;;;;;;11.02;6.72;;;16.60;82.50;;;;;;5047718;28;20028;-67
2023/08/09 02:14:08;;;;;;;12.07;7.47;;;16.60;82.50;;;;;;5026658;28;20025;-67
2023/08/09 02:16:34;;;;;;;12.30;8.25;;;16.60;82.60;;;;;;5041640;28;20060;-66
2023/08/09 02:19:00;;;;;;;11.95;7.97;;;16.60;82.60;;;;;;5042174;28;20033;-67
2023/08/09 02:21:26;;;;;;;11.88;7.55;;;16.60;82.60;;;;;;5042405;28;20069;-66
2023/08/09 02:23:52;;;;;;;12.52;8.15;;;16.60;82.70;;;;;;5047529;28;20445;-66
2023/08/09 02:26:21;;;;;;;12.13;8.13;;;16.60;82.70;;;;;;5043389;28;20350;-67
2023/08/09 02:28:48;;;;;;;13.57;8.48;;;16.60;82.80;;;;;;5048820;28;20025;-66
2023/08/09 02:31:14;;;;;;;12.98;8.68;;;16.60;82.80;;;;;;5049990;28;20032;-66
2023/08/09 02:33:40;;;;;;;11.70;7.53;;;16.60;82.80;;;;;;5043574;28;20028;-66
2023/08/09 02:36:06;;;;;;;12.13;7.65;;;16.60;82.80;;;;;;5047603;28;20029;-66
2023/08/09 02:38:32;;;;;;;12.50;7.35;;;16.60;82.80;;;;;;5044957;28;20367;-66
2023/08/09 02:41:00;;;;;;;11.57;6.72;;;16.60;82.90;;;;;;5044523;28;20108;-67
2023/08/09 02:43:27;;;;;;;13.57;7.30;;;16.60;82.90;;;;;;5050791;28;20111;-67
2023/08/09 02:45:54;;;;;;;11.45;7.43;;;16.60;82.90;;;;;;5044242;28;20105;-66
2023/08/09 02:48:20;;;;;;;13.52;8.20;;;16.60;82.90;;;;;;5039007;28;20389;-67
2023/08/09 02:50:46;;;;;;;13.70;7.97;;;16.60;82.90;;;;;;5042777;28;20031;-66
2023/08/09 02:53:12;;;;;;;12.73;7.88;;;16.60;82.90;;;;;;5045001;28;20074;-67
2023/08/09 02:55:38;;;;;;;14.10;8.30;;;16.60;83.00;;;;;;5039642;28;20067;-67
2023/08/09 02:58:05;;;;;;;12.15;7.68;;;16.60;83.00;;;;;;5042034;28;20470;-67
2023/08/09 03:00:34;;;;;;;12.02;7.15;;;16.60;83.00;;;;;;5042369;28;20107;-66
2023/08/09 03:03:04;;;;;;;15.13;7.88;;;16.60;83.10;;;;;;5043612;28;20078;-66
2023/08/09 03:05:30;;;;;;;11.40;7.18;;;16.60;83.10;;;;;;5060685;28;20043;-67
2023/08/09 03:07:56;;;;;;;12.68;7.88;;;16.60;83.20;;;;;;5040302;28;20466;-66
2023/08/09 03:10:23;;;;;;;13.52;7.88;;;16.60;83.20;;;;;;5048847;28;20028;-67
2023/08/09 03:12:49;;;;;;;14.10;8.07;;;16.60;83.20;;;;;;5043747;28;20047;-66
2023/08/09 03:15:16;;;;;;;11.68;7.78;;;16.60;83.20;;;;;;5036253;28;20041;-66
2023/08/09 03:17:42;;;;;;;14.88;8.73;;;16.60;83.20;;;;;;5043717;28;20025;-66
2023/08/09 03:20:15;;;;;;;13.73;8.02;;;16.60;83.20;;;;;;5040614;28;20091;-66
2023/08/09 03:22:45;;;;;;;14.68;8.75;;;16.60;83.30;;;;;;5062408;28;20112;-67
2023/08/09 03:25:12;;;;;;;14.10;8.82;;;16.60;83.30;;;;;;5044385;28;20022;-67
2023/08/09 03:27:40;;;;;;;14.52;9.20;;;16.60;83.40;;;;;;5043806;28;20038;-67
2023/08/09 03:30:09;;;;;;;15.23;8.38;;;16.60;83.40;;;;;;5043742;28;20672;-67
2023/08/09 03:32:36;;;;;;;13.63;8.93;;;16.70;83.40;;;;;;5045932;28;20021;-66
2023/08/09 03:35:02;;;;;;;16.40;9.80;;;16.70;83.40;;;;;;5027931;28;20028;-66
2023/08/09 03:37:29;;;;;;;16.67;9.55;;;16.70;83.50;;;;;;5041514;28;20114;-67
2023/08/09 03:39:54;;;;;;;16.85;10.23;;;16.70;83.50;;;;;;5021100;28;20033;-67
2023/08/09 03:42:20;;;;;;;15.52;9.77;;;16.70;83.60;;;;;;5047842;28;20025;-67
2023/08/09 03:44:46;;;;;;;14.02;9.75;;;16.70;83.60;;;;;;5022622;28;20021;-67
2023/08/09 03:47:12;;;;;;;15.70;10.98;;;16.70;83.60;;;;;;5039771;28;20029;-67
2023/08/09 03:49:38;;;;;;;15.60;10.02;;;16.70;83.60;;;;;;5025227;28;20029;-67
2023/08/09 03:52:05;;;;;;;16.77;10.90;;;16.70;83.70;;;;;;5047151;28;20055;-67
2023/08/09 03:54:31;;;;;;;16.23;10.43;;;16.70;83.70;;;;;;5038805;28;20026;-67
2023/08/09 03:56:57;;;;;;;14.88;9.73;;;16.70;83.70;;;;;;5047527;28;20417;-67
2023/08/09 03:59:23;;;;;;;17.35;10.70;;;16.70;83.80;;;;;;5045544;28;20029;-66
2023/08/09 04:01:49;;;;;;;16.85;10.30;;;16.70;83.80;;;;;;5022199;28;20072;-67
2023/08/09 04:04:15;;;;;;;16.75;9.65;;;16.70;83.70;;;;;;5044280;28;20048;-66
2023/08/09 04:06:41;;;;;;;17.55;11.27;;;16.70;83.80;;;;;;5041155;28;20033;-66
2023/08/09 04:09:07;;;;;;;15.75;10.48;;;16.70;83.80;;;;;;5026584;28;20031;-66
2023/08/09 04:11:33;;;;;;;15.90;10.18;;;16.70;83.90;;;;;;5041366;28;20027;-67
2023/08/09 04:13:59;;;;;;;17.30;10.77;;;16.70;83.90;;;;;;5046919;28;20445;-67
2023/08/09 04:16:25;;;;;;;17.52;10.73;;;16.70;84.00;;;;;;5045049;28;20451;-66
2023/08/09 04:18:51;;;;;;;17.27;10.57;;;16.70;84.00;;;;;;5042328;28;20111;-67
2023/08/09 04:21:18;;;;;;;18.05;11.02;;;16.70;84.00;;;;;;5041996;28;20116;-67
2023/08/09 04:23:43;;;;;;;17.52;10.82;;;16.70;84.00;;;;;;5070483;28;20040;-67
2023/08/09 04:26:09;;;;;;;15.15;9.57;;;16.70;84.00;;;;;;5049704;28;20032;-66
2023/08/09 04:28:35;;;;;;;14.85;9.90;;;16.70;84.00;;;;;;5052510;28;20105;-66
2023/08/09 04:31:03;;;;;;;15.05;9.18;;;16.70;84.00;;;;;;5053575;28;20061;-66
2023/08/09 04:33:28;;;;;;;18.38;9.57;;;16.70;84.00;;;;;;5050244;28;20055;-66
2023/08/09 04:35:54;;;;;;;14.95;8.68;;;16.70;84.00;;;;;;5044046;28;20068;-66
2023/08/09 04:38:20;;;;;;;14.48;8.88;;;16.70;84.00;;;;;;5067954;28;20040;-66
2023/08/09 04:40:47;;;;;;;16.13;8.60;;;16.70;84.00;;;;;;5024827;28;20128;-67
2023/08/09 04:43:14;;;;;;;13.73;8.55;;;16.70;84.10;;;;;;5049683;28;20116;-67
2023/08/09 04:45:40;;;;;;;15.23;8.68;;;16.70;84.70;;;;;;5028248;28;20101;-66
2023/08/09 04:48:06;;;;;;;14.00;7.28;;;16.70;84.10;;;;;;5052639;28;20025;-67
2023/08/09 04:50:32;;;;;;;16.60;9.18;;;16.60;84.00;;;;;;5031150;28;20017;-66
2023/08/09 04:52:59;;;;;;;13.50;8.27;;;16.70;84.00;;;;;;5052189;28;20323;-67
2023/08/09 04:55:25;;;;;;;14.13;8.05;;;16.60;84.00;;;;;;5045024;28;20084;-67
2023/08/09 04:57:51;;;;;;;13.32;7.93;;;16.60;84.00;;;;;;5050564;28;20037;-67
2023/08/09 05:00:17;;;;;;;14.77;8.90;;;16.70;84.10;;;;;;5050804;28;20092;-66
2023/08/09 05:02:43;;;;;;;16.60;9.88;;;16.70;84.10;;;;;;5051141;28;20361;-67
2023/08/09 05:05:10;;;;;;;15.55;9.27;;;16.70;84.10;;;;;;5048891;28;20041;-67
2023/08/09 05:07:37;;;;;;;16.65;9.63;;;16.70;84.10;;;;;;5063009;28;20025;-67
2023/08/09 05:10:04;;;;;;;16.67;9.90;;;16.70;84.00;;;;;;5042914;28;20239;-67
2023/08/09 05:12:30;;;;;;;17.52;10.23;;;16.70;84.20;;;;;;5047393;28;20146;-67
2023/08/09 05:14:57;;;;;;;19.83;11.45;;;16.70;84.20;;;;;;5066339;28;20025;-68
2023/08/09 05:17:24;;;;;;;17.92;11.18;;;16.80;84.30;;;;;;5041092;28;20071;-68
2023/08/09 05:19:50;;;;;;;19.20;12.25;;;16.80;84.20;;;;;;5055646;28;20044;-68
2023/08/09 05:22:15;;;;;;;19.63;13.15;;;16.80;84.20;;;;;;5055171;28;20021;-68
2023/08/09 05:24:41;;;;;;;18.50;11.40;;;16.80;84.20;;;;;;5055302;28;20470;-68
2023/08/09 05:27:07;;;;;;;19.17;11.45;;;16.80;84.20;;;;;;5056327;28;20072;-68
2023/08/09 05:29:33;;;;;;;20.08;11.95;;;16.80;84.20;;;;;;5056263;28;20026;-68
2023/08/09 05:31:59;;;;;;;17.95;11.30;;;16.80;84.20;;;;;;5054561;28;20071;-67
2023/08/09 05:34:25;;;;;;;20.77;12.70;;;16.90;84.20;;;;;;5055011;28;20021;-67
2023/08/09 05:36:50;;;;;;;19.58;11.68;;;16.90;84.20;;;;;;5037735;28;20045;-67
2023/08/09 05:39:16;;;;;;;20.10;12.15;;;16.90;84.20;;;;;;5054960;28;20346;-67
2023/08/09 05:41:42;;;;;;;18.98;11.27;;;16.90;84.20;;;;;;5053456;28;20029;-67
2023/08/09 05:44:08;;;;;;;19.58;11.45;;;16.90;84.10;;;;;;5051473;28;20029;-67
2023/08/09 05:46:33;;;;;;;17.67;10.63;;;16.90;84.00;;;;;;5052135;28;20021;-68
2023/08/09 05:48:59;;;;;;;19.95;11.90;;;16.90;84.00;;;;;;5050540;28;20450;-68
2023/08/09 05:51:25;;;;;;;21.15;13.63;;;16.90;84.00;;;;;;5047235;28;20028;-67
2023/08/09 05:53:51;;;;;;;19.58;11.65;;;16.90;84.00;;;;;;5051201;28;20028;-67
2023/08/09 05:56:17;;;;;;;22.17;13.07;;;16.90;84.00;;;;;;5049596;28;20028;-68
2023/08/09 05:58:43;;;;;;;26.35;13.45;;;17.00;84.00;;;;;;5053206;28;20032;-67
2023/08/09 06:01:10;;;;;;;21.85;12.60;;;17.00;84.00;;;;;;5051743;28;20063;-67
2023/08/09 06:03:39;;;;;;;22.38;13.15;;;17.10;84.10;;;;;;5050929;28;20032;-67
2023/08/09 06:06:07;;;;;;;20.85;11.98;;;17.10;84.00;;;;;;5049464;28;20878;-67
2023/08/09 06:08:34;;;;;;;21.08;12.07;;;17.10;84.00;;;;;;5050972;28;20405;-68
2023/08/09 06:11:00;;;;;;;22.67;11.27;;;17.10;84.00;;;;;;5050259;28;20032;-69
2023/08/09 06:13:26;;;;;;;19.52;10.32;;;17.20;83.90;;;;;;5042986;28;20025;-67
2023/08/09 06:15:51;;;;;;;18.83;10.85;;;17.20;83.90;;;;;;5044201;28;20017;-67
2023/08/09 06:18:18;;;;;;;22.13;10.95;;;17.20;83.90;;;;;;5048009;28;20497;-67
2023/08/09 06:20:44;;;;;;;23.42;11.70;;;17.20;83.80;;;;;;5052293;28;20112;-67
2023/08/09 06:23:10;;;;;;;28.23;11.23;;;17.20;83.80;;;;;;5064575;28;20041;-68
2023/08/09 06:25:36;;;;;;;19.30;11.63;;;17.30;83.80;;;;;;5056527;28;20040;-68
2023/08/09 06:28:02;;;;;;;19.25;11.20;;;17.30;83.80;;;;;;5055385;28;20366;-67
2023/08/09 06:30:28;;;;;;;17.90;11.23;;;17.30;83.80;;;;;;5046644;28;20099;-68
2023/08/09 06:32:54;;;;;;;22.40;12.20;;;17.30;83.90;;;;;;5052762;28;20174;-68
2023/08/09 06:35:20;;;;;;;19.83;10.60;;;17.30;83.90;;;;;;5053780;28;20037;-68
2023/08/09 06:37:47;;;;;;;18.67;11.77;;;17.20;83.80;;;;;;5054875;28;20442;-68
2023/08/09 06:40:16;;;;;;;18.77;10.90;;;17.20;83.80;;;;;;5053027;28;20033;-67
2023/08/09 06:42:42;;;;;;;17.92;10.52;;;17.20;83.80;;;;;;5048822;28;20087;-68
2023/08/09 06:45:11;;;;;;;20.70;10.85;;;17.30;83.80;;;;;;5040823;28;20127;-70
2023/08/09 06:47:37;;;;;;;19.83;11.07;;;17.30;83.80;;;;;;5044199;28;20124;-68
2023/08/09 06:50:04;;;;;;;20.73;11.55;;;17.30;83.60;;;;;;5045642;28;20021;-69
2023/08/09 06:52:31;;;;;;;20.98;11.02;;;17.40;83.60;;;;;;5049268;28;20438;-67
2023/08/09 06:54:57;;;;;;;21.13;11.88;;;17.40;83.50;;;;;;5045561;28;20056;-69
2023/08/09 06:57:24;;;;;;;20.77;11.55;;;17.50;83.50;;;;;;5045898;28;20025;-66
2023/08/09 06:59:51;;;;;;;19.58;11.25;;;17.40;83.40;;;;;;5046452;28;20032;-66
2023/08/09 07:02:17;;;;;;;22.92;12.70;;;17.40;83.50;;;;;;5046052;28;20043;-66
2023/08/09 07:04:43;;;;;;;17.77;10.93;;;17.40;83.50;;;;;;5045079;28;20525;-66
2023/08/09 07:07:09;;;;;;;19.58;11.20;;;17.50;83.60;;;;;;5051686;28;20029;-66
2023/08/09 07:09:35;;;;;;;17.73;10.48;;;17.50;83.50;;;;;;5053109;28;20361;-67
2023/08/09 07:12:01;;;;;;;20.77;11.20;;;17.60;83.50;;;;;;5050380;28;20028;-66
2023/08/09 07:14:27;;;;;;;17.75;10.95;;;17.60;83.40;;;;;;5050404;28;20033;-66
2023/08/09 07:16:52;;;;;;;17.60;9.85;;;17.70;83.20;;;;;;5043457;28;20025;-66
2023/08/09 07:19:18;;;;;;;16.15;8.75;;;17.80;83.20;;;;;;5047804;28;20021;-67
2023/08/09 07:21:44;;;;;;;15.63;8.73;;;17.90;83.00;;;;;;5062540;28;20029;-67
2023/08/09 07:24:10;;;;;;;16.70;9.95;;;17.90;82.90;;;;;;5052938;28;20128;-67
2023/08/09 07:26:35;;;;;;;17.10;9.98;;;18.00;82.70;;;;;;5055303;28;20028;-67
2023/08/09 07:29:01;;;;;;;16.92;10.50;;;18.00;82.40;;;;;;5053852;28;20021;-67
2023/08/09 07:31:27;;;;;;;17.10;10.45;;;18.10;82.40;;;;;;5049717;28;20504;-67
2023/08/09 07:33:53;;;;;;;16.75;11.20;;;18.10;82.30;;;;;;5037442;28;20025;-67
2023/08/09 07:36:19;;;;;;;14.07;9.57;;;18.20;82.30;;;;;;5040656;28;20021;-67
2023/08/09 07:38:44;;;;;;;16.73;10.27;;;18.10;82.20;;;;;;5040137;28;20485;-67
2023/08/09 07:41:10;;;;;;;15.30;9.05;;;18.20;82.30;;;;;;5041473;28;20025;-67
2023/08/09 07:43:36;;;;;;;15.63;9.00;;;18.20;82.10;;;;;;5042656;28;20048;-69
2023/08/09 07:46:05;;;;;;;14.35;9.05;;;18.40;81.90;;;;;;5059732;28;20474;-68
2023/08/09 07:48:32;;;;;;;13.13;7.97;;;18.50;81.50;;;;;;5049710;28;20445;-68
2023/08/09 07:50:58;;;;;;;12.18;7.43;;;18.50;81.30;;;;;;5048206;28;20400;-68
2023/08/09 07:53:24;;;;;;;12.82;7.50;;;18.60;81.20;;;;;;5049273;28;20027;-68
2023/08/09 07:55:51;;;;;;;12.98;8.63;;;18.60;81.20;;;;;;5044871;28;20381;-68
2023/08/09 07:58:16;;;;;;;14.02;7.82;;;18.60;81.10;;;;;;5049089;28;20044;-67
2023/08/09 08:00:42;;;;;;;13.70;8.52;;;18.70;81.10;;;;;;5053599;28;20036;-68
2023/08/09 08:03:09;;;;;;;12.32;8.32;;;18.70;81.10;;;;;;5056456;28;20051;-67
2023/08/09 08:05:36;;;;;;;13.15;8.32;;;18.70;81.00;;;;;;5040467;28;20321;-67
2023/08/09 08:08:02;;;;;;;14.82;8.10;;;18.80;80.90;;;;;;5046465;28;20423;-67
2023/08/09 08:10:28;;;;;;;11.77;8.65;;;18.80;80.70;;;;;;5056367;28;20055;-67
2023/08/09 08:12:55;;;;;;;14.13;8.05;;;18.80;80.80;;;;;;5057479;28;20029;-67
2023/08/09 08:15:21;;;;;;;11.82;7.75;;;18.80;80.70;;;;;;5056527;28;20029;-67
2023/08/09 08:17:48;;;;;;;11.80;8.30;;;18.80;80.70;;;;;;5056465;28;20025;-67
2023/08/09 08:20:17;;;;;;;12.35;8.02;;;18.80;80.70;;;;;;5057625;28;20099;-67
2023/08/09 08:22:48;;;;;;;14.23;9.52;;;18.80;80.60;;;;;;5057421;28;20033;-67
2023/08/09 08:25:15;;;;;;;11.15;7.55;;;18.90;80.60;;;;;;5056451;28;20025;-67
2023/08/09 08:27:45;;;;;;;11.85;7.93;;;19.00;80.60;;;;;;5055376;28;20040;-67
2023/08/09 08:30:17;;;;;;;11.75;7.55;;;19.00;80.40;;;;;;5055005;28;20071;-67
2023/08/09 08:32:44;;;;;;;10.98;6.32;;;19.10;80.20;;;;;;5043372;28;20407;-67
2023/08/09 08:35:13;;;;;;;10.43;6.63;;;19.10;80.00;;;;;;5056071;28;20464;-67
2023/08/09 08:37:42;;;;;;;12.10;7.20;;;19.20;79.70;;;;;;5057612;28;20487;-67
2023/08/09 08:40:14;;;;;;;11.05;6.68;;;19.30;79.50;;;;;;5055552;28;20052;-67
2023/08/09 08:42:41;;;;;;;9.98;6.47;;;19.40;79.50;;;;;;5056419;28;20430;-68
2023/08/09 08:45:11;;;;;;;10.48;5.78;;;19.40;79.20;;;;;;5056838;28;20040;-67
2023/08/09 08:47:41;;;;;;;9.02;5.78;;;19.50;79.10;;;;;;5056246;28;20480;-67
2023/08/09 08:50:08;;;;;;;8.90;5.20;;;19.70;78.70;;;;;;5046314;28;20055;-67
2023/08/09 08:52:37;;;;;;;9.88;6.47;;;19.70;78.70;;;;;;5038838;28;20060;-67
2023/08/09 08:55:05;;;;;;;7.90;4.95;;;19.70;78.30;;;;;;5041585;28;20026;-67
2023/08/09 08:57:32;;;;;;;7.85;4.60;;;19.80;78.30;;;;;;5050775;28;20040;-67
2023/08/09 08:59:58;;;;;;;8.95;5.32;;;20.00;78.10;;;;;;5047175;28;20057;-67
2023/08/09 09:02:23;;;;;;;9.45;5.75;;;20.30;77.40;;;;;;5056052;28;20037;-67
2023/08/09 09:04:49;;;;;;;10.27;6.00;;;20.70;76.70;;;;;;5039374;28;20021;-67
2023/08/09 09:07:15;;;;;;;10.90;5.70;;;21.00;75.90;;;;;;5052175;28;20033;-67
2023/08/09 09:09:57;;;;;;;10.32;5.70;;;21.10;75.30;;;;;;5053283;28;20025;-67
2023/08/09 09:12:24;;;;;;;7.70;4.97;;;21.10;74.80;;;;;;5048413;28;20406;-67
2023/08/09 09:14:52;;;;;;;8.73;5.40;;;21.10;74.80;;;;;;5037118;28;20453;-67
2023/08/09 09:17:22;;;;;;;7.93;4.90;;;21.00;74.60;;;;;;5048311;28;20064;-67
2023/08/09 09:19:48;;;;;;;8.98;4.53;;;20.90;74.40;;;;;;5043261;28;20119;-67
2023/08/09 09:22:34;;;;;;;9.30;4.82;;;20.90;74.40;;;;;;5048492;28;20021;-67
2023/08/09 09:25:04;;;;;;;7.43;4.50;;;21.00;74.20;;;;;;5048290;28;20410;-70
2023/08/09 09:27:32;;;;;;;10.00;3.90;;;21.10;73.90;;;;;;5049082;28;20029;-65
2023/08/09 09:30:11;;;;;;;7.07;3.60;;;21.30;73.50;;;;;;5033327;28;20025;-65
2023/08/09 09:32:40;;;;;;;8.82;4.00;;;21.40;73.10;;;;;;5051628;28;20033;-65
2023/08/09 09:35:08;;;;;;;8.48;3.80;;;21.60;72.80;;;;;;5041891;28;20461;-65
2023/08/09 09:37:35;;;;;;;6.97;3.53;;;21.80;72.10;;;;;;5044937;28;20032;-65
2023/08/09 09:40:02;;;;;;;7.00;3.33;;;21.90;71.20;;;;;;5045030;28;20036;-65
2023/08/09 09:42:34;;;;;;;6.25;3.25;;;22.00;70.70;;;;;;5038592;28;20033;-65
2023/08/09 09:45:05;;;;;;;6.45;3.33;;;22.10;70.30;;;;;;5047738;28;20032;-65
2023/08/09 09:47:40;;;;;;;8.50;3.83;;;22.00;70.10;;;;;;5044483;28;20117;-65
2023/08/09 09:50:07;;;;;;;6.18;3.15;;;21.80;70.20;;;;;;5043459;28;20400;-64
2023/08/09 09:52:36;;;;;;;7.57;3.40;;;21.60;70.60;;;;;;5045150;28;20086;-64
2023/08/09 09:55:03;;;;;;;7.20;3.35;;;21.40;71.60;;;;;;5041249;28;20064;-65
2023/08/09 09:57:29;;;;;;;7.25;3.05;;;21.30;70.90;;;;;;5040075;28;20032;-68
2023/08/09 09:59:59;;;;;;;7.07;3.78;;;21.20;70.90;;;;;;5044828;28;20446;-67
2023/08/09 10:02:38;;;;;;;7.57;3.83;;;21.30;70.80;;;;;;5047798;28;20036;-67
2023/08/09 10:05:05;;;;;;;6.47;2.95;;;21.30;70.60;;;;;;5044246;28;20403;-67
2023/08/09 10:07:31;;;;;;;7.30;3.65;;;21.30;70.60;;;;;;5031339;28;20445;-67
2023/08/09 10:10:02;;;;;;;7.25;3.42;;;21.30;71.40;;;;;;5045395;28;20542;-67
2023/08/09 10:12:33;;;;;;;7.35;3.40;;;21.20;70.60;;;;;;5047813;28;20449;-67
2023/08/09 10:15:02;;;;;;;7.22;3.22;;;21.20;70.60;;;;;;5030187;28;20032;-66
2023/08/09 10:17:29;;;;;;;6.78;2.95;;;21.20;70.70;;;;;;5052612;28;20032;-66
2023/08/09 10:20:00;;;;;;;5.65;2.42;;;21.30;70.50;;;;;;5019361;28;20431;-66
2023/08/09 10:22:27;;;;;;;7.73;2.93;;;21.20;70.00;;;;;;5049102;28;20164;-66
2023/08/09 10:24:57;;;;;;;6.45;2.60;;;21.10;69.80;;;;;;5023905;28;20099;-66
2023/08/09 10:28:01;;;;;;;5.93;2.50;;;21.10;69.80;;;;;;5030507;28;20112;-66
2023/08/09 10:30:30;;;;;;;5.80;2.28;;;21.00;69.80;;;;;;4971884;28;21205;-66
2023/08/09 10:32:57;;;;;;;5.32;2.35;;;21.00;70.00;;;;;;5035906;28;20029;-66
2023/08/09 10:35:58;;;;;;;5.90;2.30;;;20.90;69.50;;;;;;5021761;28;20109;-66
2023/08/09 10:38:30;;;;;;;5.43;2.38;;;20.90;69.60;;;;;;4988863;28;20523;-66
2023/08/09 10:40:56;;;;;;;11.35;7.40;;;20.80;69.70;;;;;;5036937;28;20044;-67
2023/08/09 10:43:29;;;;;;;10.10;4.82;;;20.70;70.00;;;;;;5041463;28;20201;-66
2023/08/09 10:45:56;;;;;;;7.43;3.90;;;20.70;69.90;;;;;;5021888;28;20040;-66
2023/08/09 10:48:27;;;;;;;5.50;2.78;;;20.70;69.90;;;;;;5040651;28;20032;-67
2023/08/09 10:51:08;;;;;;;5.35;2.65;;;20.80;69.70;;;;;;5050087;28;20461;-66
2023/08/09 10:53:58;;;;;;;6.07;2.55;;;20.90;69.30;;;;;;5047271;28;20072;-67
2023/08/09 10:56:47;;;;;;;7.32;2.45;;;21.00;69.10;;;;;;5047887;28;20112;-67
2023/08/09 10:59:21;;;;;;;4.85;2.42;;;21.10;69.00;;;;;;5029573;28;20374;-66
2023/08/09 11:01:47;;;;;;;7.20;2.47;;;21.20;68.80;;;;;;5044898;28;20024;-66
2023/08/09 11:04:14;;;;;;;7.82;2.97;;;21.20;68.60;;;;;;5044707;28;20030;-67
2023/08/09 11:06:40;;;;;;;5.80;2.65;;;21.30;68.60;;;;;;5051694;28;20036;-67
2023/08/09 11:09:14;;;;;;;7.40;2.88;;;21.30;68.40;;;;;;5039068;28;20017;-67
2023/08/09 11:11:41;;;;;;;7.43;3.10;;;21.40;68.40;;;;;;5046179;28;20025;-67
2023/08/09 11:14:09;;;;;;;6.13;2.85;;;21.40;68.30;;;;;;5041876;28;20048;-67
2023/08/09 11:16:35;;;;;;;7.03;3.50;;;21.50;68.40;;;;;;5047765;28;20086;-66
2023/08/09 11:19:08;;;;;;;7.65;3.25;;;21.40;68.00;;;;;;5044918;28;20362;-67
2023/08/09 11:21:52;;;;;;;6.72;3.35;;;21.50;67.90;;;;;;5038656;28;20025;-67
2023/08/09 11:24:20;;;;;;;7.43;3.80;;;21.50;67.80;;;;;;5045498;28;20045;-66
2023/08/09 11:26:54;;;;;;;6.65;3.97;;;21.50;67.90;;;;;;5047650;28;20039;-67
2023/08/09 11:29:22;;;;;;;6.82;3.60;;;21.40;67.80;;;;;;5042913;28;20108;-67
2023/08/09 11:31:50;;;;;;;7.30;3.58;;;21.30;68.00;;;;;;5053550;28;20017;-67
2023/08/09 11:34:18;;;;;;;6.03;3.45;;;21.20;68.40;;;;;;5053206;28;20445;-67
2023/08/09 11:36:46;;;;;;;7.40;3.85;;;21.20;68.80;;;;;;5050950;28;20073;-67
2023/08/09 11:39:16;;;;;;;6.40;3.70;;;21.20;68.90;;;;;;5036847;28;20120;-67
2023/08/09 11:41:44;;;;;;;6.35;3.72;;;21.30;68.90;;;;;;5043529;28;20036;-67
2023/08/09 11:44:12;;;;;;;6.03;3.47;;;21.40;68.90;;;;;;5052902;28;20078;-67
2023/08/09 11:46:41;;;;;;;8.27;3.80;;;21.40;68.70;;;;;;5052281;28;20080;-67
2023/08/09 11:49:07;;;;;;;6.43;3.55;;;21.50;68.50;;;;;;5049408;28;20057;-67
2023/08/09 11:51:35;;;;;;;7.47;3.83;;;21.60;68.60;;;;;;5040829;28;20311;-67
2023/08/09 11:54:02;;;;;;;7.35;3.30;;;21.60;68.40;;;;;;5052278;28;20033;-67
2023/08/09 11:56:33;;;;;;;6.95;3.15;;;21.80;68.10;;;;;;5038566;28;20033;-67
2023/08/09 11:59:01;;;;;;;6.85;2.90;;;21.90;67.60;;;;;;5052376;28;20033;-67
2023/08/09 12:01:29;;;;;;;7.65;3.20;;;22.10;67.30;;;;;;5052179;28;20078;-67
2023/08/09 12:03:58;;;;;;;6.03;3.30;;;22.30;66.80;;;;;;5052988;28;20029;-67
2023/08/09 12:06:51;;;;;;;6.20;3.15;;;22.60;66.40;;;;;;5053059;28;20025;-67
2023/08/09 12:09:32;;;;;;;5.50;2.85;;;22.70;65.80;;;;;;5052566;28;20025;-67
2023/08/09 12:12:12;;;;;;;5.38;2.63;;;22.70;65.40;;;;;;5036960;28;20057;-67
2023/08/09 12:14:49;;;;;;;5.70;2.43;;;22.60;65.60;;;;;;5037031;28;20034;-67
2023/08/09 12:17:21;;;;;;;4.95;2.30;;;22.50;65.50;;;;;;5051820;28;20032;-67
2023/08/09 12:19:47;;;;;;;6.32;2.35;;;22.50;65.80;;;;;;5052718;28;20029;-67
2023/08/09 12:22:14;;;;;;;4.95;2.30;;;22.60;65.70;;;;;;5007958;28;1168877;-67
2023/08/09 12:24:41;;;;;;;4.50;2.08;;;22.70;65.00;;;;;;5053692;28;20492;-67
2023/08/09 12:27:07;;;;;;;6.10;2.33;;;22.80;64.60;;;;;;5053561;28;20025;-67
2023/08/09 12:29:34;;;;;;;3.53;1.92;;;22.90;64.30;;;;;;5053663;28;20037;-67
2023/08/09 12:32:00;;;;;;;6.93;2.17;;;23.00;64.00;;;;;;5042998;28;20022;-67
2023/08/09 12:34:26;;;;;;;5.18;2.10;;;23.00;63.80;;;;;;5054077;28;20090;-67
2023/08/09 12:36:53;;;;;;;5.00;2.30;;;23.10;63.80;;;;;;5053577;28;20033;-67
2023/08/09 12:39:20;;;;;;;5.72;2.10;;;23.10;63.70;;;;;;5054010;28;20365;-67
2023/08/09 12:41:45;;;;;;;4.18;1.98;;;23.10;63.80;;;;;;5051411;28;20029;-67